createdAt,value
2017-12-05T00:02:26.227Z,15.67
2017-12-05T00:04:54.052Z,17.97
2017-12-05T00:10:22.944Z,13.60
2017-12-05T00:12:50.785Z,14.10
2017-12-05T00:15:18.610Z,11.97
2017-12-05T00:17:46.471Z,14.27
2017-12-05T00:20:14.308Z,16.10
2017-12-05T00:22:42.174Z,10.07
2017-12-05T00:25:10.048Z,13.63
2017-12-05T00:27:37.900Z,15.87
2017-12-05T00:30:05.773Z,18.17
2017-12-05T00:32:33.596Z,19.67
2017-12-05T00:35:01.436Z,17.50
2017-12-05T00:37:29.301Z,24.30
2017-12-05T00:39:57.148Z,15.37
2017-12-05T00:42:25.003Z,25.37
2017-12-05T00:44:52.855Z,24.13
2017-12-05T00:47:20.740Z,18.10
2017-12-05T00:49:48.573Z,19.60
2017-12-05T00:52:16.467Z,19.73
2017-12-05T00:54:44.293Z,28.63
2017-12-05T00:57:12.135Z,20.20
2017-12-05T00:59:40.084Z,21.53
2017-12-05T01:02:07.946Z,29.47
2017-12-05T01:04:35.790Z,31.17
2017-12-05T01:07:03.659Z,20.73
2017-12-05T01:09:31.523Z,21.60
2017-12-05T01:11:59.454Z,33.40
2017-12-05T01:14:27.323Z,20.80
2017-12-05T01:16:55.190Z,22.50
2017-12-05T01:19:23.056Z,37.40
2017-12-05T01:21:50.903Z,33.13
2017-12-05T01:24:18.753Z,37.27
2017-12-05T01:26:46.580Z,21.17
2017-12-05T01:29:14.489Z,28.43
2017-12-05T01:31:42.355Z,25.93
2017-12-05T01:34:10.222Z,18.57
2017-12-05T01:36:38.087Z,19.37
2017-12-05T01:39:05.947Z,17.27
2017-12-05T01:41:33.800Z,17.80
2017-12-05T01:44:01.651Z,16.43
2017-12-05T01:46:42.510Z,13.97
2017-12-05T01:49:10.356Z,12.13
2017-12-05T01:51:38.180Z,23.03
2017-12-05T01:54:06.078Z,26.73
2017-12-05T01:56:33.934Z,26.00
2017-12-05T01:59:01.808Z,28.03
2017-12-05T02:01:29.624Z,38.27
2017-12-05T02:03:57.484Z,21.17
2017-12-05T02:06:25.360Z,20.97
2017-12-05T02:08:53.173Z,23.03
2017-12-05T02:11:21.058Z,36.40
2017-12-05T02:13:48.924Z,21.60
2017-12-05T02:16:16.776Z,26.47
2017-12-05T02:18:44.609Z,29.53
2017-12-05T02:21:12.468Z,27.20
2017-12-05T02:26:14.765Z,19.57
2017-12-05T02:28:42.624Z,29.60
2017-12-05T02:31:10.440Z,20.23
2017-12-05T02:33:38.272Z,22.67
2017-12-05T02:36:06.128Z,25.63
2017-12-05T02:38:39.981Z,23.53
2017-12-05T02:41:08.684Z,17.83
2017-12-05T02:43:36.551Z,13.47
2017-12-05T02:46:04.401Z,20.13
2017-12-05T02:48:32.230Z,10.97
2017-12-05T02:51:00.072Z,22.70
2017-12-05T02:53:27.912Z,24.57
2017-12-05T02:55:55.761Z,17.23
2017-12-05T02:58:23.627Z,16.00
2017-12-05T03:00:51.452Z,22.00
2017-12-05T03:03:19.295Z,10.60
2017-12-05T03:05:47.123Z,11.60
2017-12-05T03:08:14.948Z,30.20
2017-12-05T03:10:42.792Z,12.00
2017-12-05T03:13:10.625Z,8.40
2017-12-05T03:15:38.480Z,19.67
2017-12-05T03:18:06.293Z,23.10
2017-12-05T03:20:34.154Z,17.13
2017-12-05T03:23:02.028Z,16.57
2017-12-05T03:25:29.885Z,20.93
2017-12-05T03:27:57.736Z,16.17
2017-12-05T03:30:25.573Z,15.60
2017-12-05T03:32:53.388Z,28.17
2017-12-05T03:35:21.247Z,15.03
2017-12-05T03:37:49.093Z,25.23
2017-12-05T03:40:16.931Z,15.23
2017-12-05T03:42:44.805Z,34.17
2017-12-05T03:45:12.619Z,27.73
2017-12-05T03:47:40.458Z,23.83
2017-12-05T03:50:08.300Z,23.67
2017-12-05T03:52:36.182Z,22.10
2017-12-05T03:55:04.024Z,46.63
2017-12-05T03:57:40.252Z,22.37
2017-12-05T04:00:08.286Z,26.47
2017-12-05T04:02:36.104Z,24.10
2017-12-05T04:05:03.931Z,27.00
2017-12-05T04:07:31.768Z,23.10
2017-12-05T04:09:59.601Z,21.70
2017-12-05T04:12:27.456Z,24.07
2017-12-05T04:14:55.305Z,16.90
2017-12-05T04:17:23.165Z,17.57
2017-12-05T04:19:50.992Z,20.50
2017-12-05T04:22:18.840Z,19.83
2017-12-05T04:24:46.724Z,17.70
2017-12-05T04:27:14.583Z,17.37
2017-12-05T04:29:42.444Z,8.77
2017-12-05T04:32:10.329Z,18.53
2017-12-05T04:34:38.193Z,13.17
2017-12-05T04:37:06.044Z,21.60
2017-12-05T04:39:33.952Z,21.83
2017-12-05T04:42:01.880Z,12.20
2017-12-05T04:44:29.785Z,14.60
2017-12-05T04:46:57.650Z,9.47
2017-12-05T04:49:25.554Z,8.27
2017-12-05T04:51:53.421Z,16.10
2017-12-05T04:54:21.248Z,17.00
2017-12-05T04:56:55.613Z,10.33
2017-12-05T04:59:23.465Z,9.53
2017-12-05T05:01:51.325Z,16.07
2017-12-05T05:04:19.201Z,12.00
2017-12-05T05:06:47.048Z,13.33
2017-12-05T05:09:14.901Z,11.97
2017-12-05T05:11:42.744Z,15.97
2017-12-05T05:14:10.570Z,19.43
2017-12-05T05:16:38.472Z,21.83
2017-12-05T05:19:06.364Z,18.03
2017-12-05T05:21:34.209Z,21.30
2017-12-05T05:24:02.077Z,28.10
2017-12-05T05:26:29.942Z,22.03
2017-12-05T05:28:57.809Z,19.17
2017-12-05T05:31:25.673Z,22.13
2017-12-05T05:33:53.515Z,17.47
2017-12-05T05:36:21.333Z,19.80
2017-12-05T05:38:49.147Z,21.23
2017-12-05T05:41:17.028Z,17.97
2017-12-05T05:43:44.885Z,16.53
2017-12-05T05:46:12.760Z,15.30
2017-12-05T05:48:40.629Z,16.10
2017-12-05T05:51:08.480Z,13.23
2017-12-05T05:53:36.332Z,16.93
2017-12-05T05:56:04.227Z,32.53
2017-12-05T05:58:38.221Z,12.90
2017-12-05T06:01:06.090Z,19.33
2017-12-05T06:03:33.916Z,19.17
2017-12-05T06:06:02.752Z,18.40
2017-12-05T06:08:30.616Z,8.57
2017-12-05T06:10:58.487Z,13.30
2017-12-05T06:13:26.346Z,17.47
2017-12-05T06:18:55.280Z,12.90
2017-12-05T06:21:23.147Z,12.33
2017-12-05T06:23:51.017Z,15.40
2017-12-05T06:26:18.880Z,13.73
2017-12-05T06:28:46.720Z,7.63
2017-12-05T06:31:14.572Z,10.10
2017-12-05T06:33:42.433Z,8.77
2017-12-05T06:36:10.272Z,5.47
2017-12-05T06:38:38.207Z,15.90
2017-12-05T06:41:06.087Z,22.43
2017-12-05T06:43:33.920Z,12.37
2017-12-05T06:46:01.766Z,19.83
2017-12-05T06:48:29.628Z,7.43
2017-12-05T06:50:57.467Z,20.23
2017-12-05T06:53:25.317Z,12.30
2017-12-05T06:55:53.180Z,8.10
2017-12-05T06:58:21.034Z,7.87
2017-12-05T07:00:48.906Z,17.33
2017-12-05T07:03:16.785Z,12.10
2017-12-05T07:05:44.664Z,21.97
2017-12-05T07:08:19.048Z,13.80
2017-12-05T07:10:46.926Z,12.00
2017-12-05T07:13:14.731Z,18.53
2017-12-05T07:15:42.594Z,13.63
2017-12-05T07:18:10.464Z,15.87
2017-12-05T07:20:38.333Z,12.67
2017-12-05T07:23:06.201Z,15.13
2017-12-05T07:25:34.079Z,23.83
2017-12-05T07:28:08.264Z,11.53
2017-12-05T07:30:36.096Z,10.47
2017-12-05T07:33:03.964Z,15.77
2017-12-05T07:35:31.780Z,16.23
2017-12-05T07:37:59.636Z,12.73
2017-12-05T07:40:27.490Z,20.83
2017-12-05T07:42:55.349Z,14.27
2017-12-05T07:45:23.197Z,18.83
2017-12-05T07:47:51.064Z,23.80
2017-12-05T07:50:18.916Z,18.90
2017-12-05T07:52:46.756Z,16.83
2017-12-05T07:55:14.600Z,10.27
2017-12-05T07:57:42.513Z,16.83
2017-12-05T08:00:10.669Z,13.20
2017-12-05T08:02:38.569Z,13.93
2017-12-05T08:05:06.477Z,16.43
2017-12-05T08:07:34.340Z,19.60
2017-12-05T08:10:02.202Z,14.60
2017-12-05T08:12:30.118Z,19.13
2017-12-05T08:14:57.965Z,23.33
2017-12-05T08:17:25.804Z,21.03
2017-12-05T08:19:53.672Z,20.20
2017-12-05T08:22:21.582Z,14.20
2017-12-05T08:24:49.464Z,14.47
2017-12-05T08:27:17.315Z,11.00
2017-12-05T08:29:45.201Z,11.63
2017-12-05T08:32:13.172Z,17.93
2017-12-05T08:34:41.076Z,14.67
2017-12-05T08:37:14.972Z,15.20
2017-12-05T08:39:42.855Z,11.43
2017-12-05T08:42:10.720Z,18.53
2017-12-05T08:44:38.602Z,11.73
2017-12-05T08:47:06.489Z,20.17
2017-12-05T08:49:34.360Z,17.43
2017-12-05T08:52:02.192Z,14.23
2017-12-05T08:54:30.048Z,11.90
2017-12-05T08:56:57.891Z,23.07
2017-12-05T08:59:25.781Z,12.97
2017-12-05T09:01:53.664Z,10.87
2017-12-05T09:04:21.533Z,14.10
2017-12-05T09:06:49.381Z,12.90
2017-12-05T09:09:17.269Z,15.20
2017-12-05T09:11:45.114Z,17.20
2017-12-05T09:14:12.972Z,17.60
2017-12-05T09:16:40.852Z,17.83
2017-12-05T09:19:08.705Z,17.83
2017-12-05T09:21:36.616Z,12.17
2017-12-05T09:24:04.492Z,12.13
2017-12-05T09:26:32.380Z,15.50
2017-12-05T09:29:00.240Z,13.60
2017-12-05T09:31:28.081Z,18.40
2017-12-05T09:33:55.900Z,15.93
2017-12-05T09:36:23.736Z,18.83
2017-12-05T09:41:39.203Z,13.80
2017-12-05T09:44:07.075Z,29.60
2017-12-05T09:46:41.067Z,20.57
2017-12-05T09:49:08.952Z,20.10
2017-12-05T09:51:36.830Z,23.57
2017-12-05T09:54:04.689Z,17.30
2017-12-05T09:56:32.550Z,24.47
2017-12-05T09:59:00.401Z,15.53
2017-12-05T10:01:36.078Z,18.13
2017-12-05T10:04:03.942Z,20.27
2017-12-05T10:06:31.796Z,16.23
2017-12-05T10:08:59.657Z,19.50
2017-12-05T10:11:27.523Z,30.40
2017-12-05T10:13:55.361Z,25.20
2017-12-05T10:16:23.228Z,16.93
2017-12-05T10:18:51.076Z,21.50
2017-12-05T10:21:18.946Z,18.67
2017-12-05T10:23:46.828Z,26.47
2017-12-05T10:26:14.644Z,30.90
2017-12-05T10:28:42.511Z,29.03
2017-12-05T10:31:10.356Z,23.87
2017-12-05T10:33:38.216Z,15.70
2017-12-05T10:36:06.068Z,36.53
2017-12-05T10:38:33.934Z,20.60
2017-12-05T10:41:01.787Z,17.77
2017-12-05T10:43:29.636Z,14.77
2017-12-05T10:45:57.472Z,27.73
2017-12-05T10:48:28.763Z,27.57
2017-12-05T10:50:56.618Z,13.30
2017-12-05T10:53:24.487Z,15.53
2017-12-05T10:55:52.391Z,14.93
2017-12-05T10:58:23.701Z,21.77
2017-12-05T11:00:51.560Z,17.53
2017-12-05T11:03:19.439Z,21.53
2017-12-05T11:05:47.354Z,15.20
2017-12-05T11:08:15.185Z,21.70
2017-12-05T11:10:43.036Z,21.43
2017-12-05T11:13:10.925Z,21.20
2017-12-05T11:15:38.755Z,26.17
2017-12-05T11:18:13.138Z,19.90
2017-12-05T11:20:41.018Z,24.80
2017-12-05T11:23:08.877Z,23.77
2017-12-05T11:25:36.776Z,24.80
2017-12-05T11:28:04.644Z,19.73
2017-12-05T11:30:32.512Z,26.20
2017-12-05T11:33:00.386Z,24.47
2017-12-05T11:35:28.248Z,26.03
2017-12-05T11:37:56.088Z,28.03
2017-12-05T11:40:23.928Z,32.87
2017-12-05T11:42:51.792Z,15.30
2017-12-05T11:45:19.649Z,30.47
2017-12-05T11:47:47.532Z,26.20
2017-12-05T11:50:15.381Z,24.80
2017-12-05T11:52:43.311Z,17.67
2017-12-05T11:55:11.171Z,29.80
2017-12-05T11:57:38.996Z,28.97
2017-12-05T12:00:06.844Z,27.23
2017-12-05T12:02:34.694Z,21.10
2017-12-05T12:05:02.564Z,42.07
2017-12-05T12:07:30.419Z,30.90
2017-12-05T12:09:58.251Z,29.90
2017-12-05T12:12:26.161Z,15.40
2017-12-05T12:14:54.034Z,20.93
2017-12-05T12:17:21.885Z,17.53
2017-12-05T12:19:49.748Z,18.83
2017-12-05T12:22:17.614Z,12.97
2017-12-05T12:24:45.477Z,19.10
2017-12-05T12:27:13.354Z,18.10
2017-12-05T12:29:41.225Z,21.03
2017-12-05T12:32:09.077Z,21.43
2017-12-05T12:34:36.957Z,14.43
2017-12-05T12:37:04.815Z,20.30
2017-12-05T12:39:32.640Z,20.83
2017-12-05T12:42:00.516Z,23.43
2017-12-05T12:44:28.361Z,17.20
2017-12-05T12:46:56.249Z,14.40
2017-12-05T12:49:24.101Z,15.50
2017-12-05T12:51:52.006Z,16.23
2017-12-05T12:54:19.865Z,13.50
2017-12-05T12:56:47.732Z,13.57
2017-12-05T12:59:15.601Z,15.50
2017-12-05T13:01:43.468Z,11.40
2017-12-05T13:04:11.320Z,19.07
2017-12-05T13:06:39.208Z,14.70
2017-12-05T13:09:07.020Z,18.53
2017-12-05T13:11:34.844Z,8.87
2017-12-05T13:14:02.652Z,6.83
2017-12-05T13:16:30.492Z,21.77
2017-12-05T13:18:58.360Z,12.93
2017-12-05T13:21:26.191Z,15.73
2017-12-05T13:23:54.045Z,12.30
2017-12-05T13:26:21.932Z,17.27
2017-12-05T13:28:49.801Z,19.23
2017-12-05T13:31:17.656Z,6.37
2017-12-05T13:33:45.520Z,10.57
2017-12-05T13:36:13.403Z,17.60
2017-12-05T13:38:41.295Z,17.90
2017-12-05T13:41:09.136Z,14.50
2017-12-05T13:43:37.037Z,12.10
2017-12-05T13:46:04.905Z,8.33
2017-12-05T13:48:32.772Z,15.77
2017-12-05T13:51:00.623Z,16.87
2017-12-05T13:53:28.547Z,12.63
2017-12-05T13:55:56.415Z,9.20
2017-12-05T13:58:24.344Z,10.40
2017-12-05T14:00:52.188Z,11.23
2017-12-05T14:03:20.046Z,11.57
2017-12-05T14:05:47.940Z,7.23
2017-12-05T14:08:15.784Z,9.63
2017-12-05T14:10:43.751Z,9.67
2017-12-05T14:13:11.612Z,6.97
2017-12-05T14:15:39.484Z,10.30
2017-12-05T14:18:07.392Z,14.87
2017-12-05T14:20:35.278Z,26.40
2017-12-05T14:23:03.105Z,11.30
2017-12-05T14:25:30.960Z,14.10
2017-12-05T14:27:58.815Z,18.10
2017-12-05T14:30:26.677Z,13.40
2017-12-05T14:32:54.510Z,14.67
2017-12-05T14:35:22.350Z,12.43
2017-12-05T14:37:50.177Z,9.30
2017-12-05T14:40:18.001Z,13.43
2017-12-05T14:42:45.816Z,17.90
2017-12-05T14:45:13.648Z,15.13
2017-12-05T14:47:41.499Z,22.60
2017-12-05T14:50:09.348Z,20.37
2017-12-05T14:52:38.190Z,28.23
2017-12-05T14:55:06.048Z,10.07
2017-12-05T14:57:39.924Z,11.57
2017-12-05T15:00:07.788Z,29.47
2017-12-05T15:02:35.655Z,18.83
2017-12-05T15:05:03.477Z,12.17
2017-12-05T15:07:31.358Z,12.53
2017-12-05T15:09:59.275Z,15.07
2017-12-05T15:12:27.121Z,14.37
2017-12-05T15:14:55.216Z,13.57
2017-12-05T15:17:30.034Z,28.07
2017-12-05T15:19:57.916Z,21.87
2017-12-05T15:22:25.772Z,11.10
2017-12-05T15:24:53.633Z,18.83
2017-12-05T15:27:28.150Z,16.30
2017-12-05T15:30:06.459Z,15.37
2017-12-05T15:32:35.206Z,12.77
2017-12-05T15:35:03.040Z,10.47
2017-12-05T15:37:30.919Z,17.27
2017-12-05T15:39:58.762Z,10.23
2017-12-05T15:42:26.596Z,8.30
2017-12-05T15:44:54.436Z,9.50
2017-12-05T15:47:22.308Z,21.33
2017-12-05T15:49:50.124Z,13.30
2017-12-05T15:52:18.002Z,17.47
2017-12-05T15:54:45.868Z,9.43
2017-12-05T15:57:13.716Z,13.00
2017-12-05T15:59:41.556Z,20.83
2017-12-05T16:02:09.451Z,18.90
2017-12-05T16:04:37.276Z,21.47
2017-12-05T16:07:05.084Z,16.63
2017-12-05T16:09:32.920Z,12.40
2017-12-05T16:12:00.728Z,9.90
2017-12-05T16:14:28.540Z,11.20
2017-12-05T16:16:56.357Z,7.50
2017-12-05T16:19:24.217Z,17.60
2017-12-05T16:21:52.069Z,20.70
2017-12-05T16:24:19.930Z,10.00
2017-12-05T16:26:47.752Z,10.17
2017-12-05T16:29:15.639Z,14.53
2017-12-05T16:31:43.495Z,10.63
2017-12-05T16:34:11.320Z,15.23
2017-12-05T16:36:46.017Z,13.57
2017-12-05T16:39:13.876Z,23.33
2017-12-05T16:41:41.712Z,12.53
2017-12-05T16:44:09.615Z,10.90
2017-12-05T16:46:37.488Z,16.30
2017-12-05T16:49:05.353Z,16.03
2017-12-05T16:51:33.258Z,13.43
2017-12-05T16:54:01.223Z,12.60
2017-12-05T16:56:29.181Z,9.03
2017-12-05T16:58:57.066Z,14.50
2017-12-05T17:01:24.947Z,14.03
2017-12-05T17:03:52.794Z,14.67
2017-12-05T17:06:20.664Z,13.90
2017-12-05T17:08:48.540Z,8.10
2017-12-05T17:11:16.376Z,15.80
2017-12-05T17:13:44.269Z,15.30
2017-12-05T17:16:12.112Z,8.53
2017-12-05T17:18:39.953Z,12.77
2017-12-05T17:21:07.807Z,11.83
2017-12-05T17:23:35.686Z,23.60
2017-12-05T17:26:03.576Z,26.17
2017-12-05T17:28:31.441Z,22.97
2017-12-05T17:30:59.310Z,18.43
2017-12-05T17:33:27.157Z,19.53
2017-12-05T17:35:54.997Z,14.50
2017-12-05T17:38:22.901Z,17.50
2017-12-05T17:40:50.752Z,20.20
2017-12-05T17:43:18.713Z,17.17
2017-12-05T17:45:46.582Z,23.70
2017-12-05T17:48:20.478Z,23.13
2017-12-05T17:50:48.391Z,24.67
2017-12-05T17:53:16.244Z,17.70
2017-12-05T17:55:44.153Z,19.80
2017-12-05T17:58:12.067Z,26.20
2017-12-05T18:00:39.983Z,28.23
2017-12-05T18:03:07.872Z,22.07
2017-12-05T18:05:36.029Z,24.30
2017-12-05T18:08:12.634Z,54.33
2017-12-05T18:10:40.529Z,19.30
2017-12-05T18:13:08.393Z,15.50
2017-12-05T18:15:36.261Z,26.67
2017-12-05T18:18:04.144Z,22.23
2017-12-05T18:20:32.034Z,22.77
2017-12-05T18:22:59.933Z,18.03
2017-12-05T18:25:27.826Z,17.77
2017-12-05T18:27:55.729Z,19.70
2017-12-05T18:30:23.610Z,15.47
2017-12-05T18:33:07.090Z,29.60
2017-12-05T18:35:34.972Z,11.83
2017-12-05T18:38:02.852Z,11.80
2017-12-05T18:40:30.710Z,9.10
2017-12-05T18:42:58.578Z,9.93
2017-12-05T18:45:26.442Z,15.77
2017-12-05T18:47:54.304Z,13.93
2017-12-05T18:50:22.178Z,10.27
2017-12-05T18:52:50.098Z,9.20
2017-12-05T18:55:18.006Z,8.47
2017-12-05T18:57:45.897Z,6.50
2017-12-05T19:00:13.813Z,13.33
2017-12-05T19:02:41.742Z,9.10
2017-12-05T19:05:09.726Z,12.93
2017-12-05T19:07:44.636Z,12.27
2017-12-05T19:10:12.558Z,8.27
2017-12-05T19:12:40.460Z,18.60
2017-12-05T19:15:08.368Z,18.67
2017-12-05T19:17:42.770Z,21.97
2017-12-05T19:20:10.711Z,12.23
2017-12-05T19:22:38.608Z,24.93
2017-12-05T19:25:06.456Z,14.10
2017-12-05T19:27:34.406Z,17.93
2017-12-05T19:30:02.338Z,10.33
2017-12-05T19:32:31.534Z,13.33
2017-12-05T19:35:01.162Z,23.63
2017-12-05T19:37:35.667Z,23.53
2017-12-05T19:40:03.560Z,15.30
2017-12-05T19:42:31.411Z,19.73
2017-12-05T19:44:59.257Z,20.03
2017-12-05T19:47:33.983Z,15.93
2017-12-05T19:50:01.868Z,24.23
2017-12-05T19:52:29.745Z,24.73
2017-12-05T19:54:57.649Z,23.63
2017-12-05T19:57:32.221Z,29.93
2017-12-05T20:00:02.178Z,25.03
2017-12-05T20:02:30.660Z,22.43
2017-12-05T20:04:59.227Z,17.40
2017-12-05T20:07:27.537Z,21.53
2017-12-05T20:12:39.310Z,26.63
2017-12-05T20:15:07.212Z,28.67
2017-12-05T20:17:35.044Z,16.33
2017-12-05T20:20:02.912Z,30.37
2017-12-05T20:22:30.834Z,17.83
2017-12-05T20:24:58.728Z,17.10
2017-12-05T20:27:26.599Z,18.97
2017-12-05T20:29:54.558Z,23.77
2017-12-05T20:32:22.418Z,25.33
2017-12-05T20:34:50.302Z,19.43
2017-12-05T20:37:18.148Z,11.90
2017-12-05T20:39:46.015Z,25.27
2017-12-05T20:42:13.868Z,16.90
2017-12-05T20:44:41.706Z,23.97
2017-12-05T20:47:09.585Z,28.23
2017-12-05T20:49:37.368Z,18.30
2017-12-05T20:52:05.173Z,29.10
2017-12-05T20:54:32.964Z,11.70
2017-12-05T20:57:00.761Z,19.53
2017-12-05T20:59:28.547Z,23.13
2017-12-05T21:01:56.306Z,21.20
2017-12-05T21:04:24.087Z,35.30
2017-12-05T21:06:58.616Z,25.30
2017-12-05T21:09:26.381Z,23.23
2017-12-05T21:11:54.211Z,30.60
2017-12-05T21:14:21.983Z,19.73
2017-12-05T21:16:49.779Z,19.77
2017-12-05T21:19:17.616Z,32.67
2017-12-05T21:21:45.414Z,19.17
2017-12-05T21:24:13.212Z,26.53
2017-12-05T21:26:41.025Z,31.23
2017-12-05T21:29:08.879Z,33.83
2017-12-05T21:31:36.670Z,31.67
2017-12-05T21:34:04.523Z,41.20
2017-12-05T21:39:38.868Z,29.30
2017-12-05T21:42:08.183Z,27.37
2017-12-05T21:44:36.120Z,23.73
2017-12-05T21:47:03.918Z,29.90
2017-12-05T21:49:31.711Z,33.33
2017-12-05T21:51:59.484Z,23.53
2017-12-05T21:54:27.280Z,21.03
2017-12-05T21:56:55.055Z,19.47
2017-12-05T21:59:22.829Z,33.27
2017-12-05T22:01:50.588Z,32.30
2017-12-05T22:04:18.359Z,25.30
2017-12-05T22:06:46.309Z,29.30
2017-12-05T22:09:14.153Z,30.27
2017-12-05T22:11:41.984Z,30.03
2017-12-05T22:14:09.817Z,31.73
2017-12-05T22:16:37.673Z,47.53
2017-12-05T22:19:05.513Z,48.43
2017-12-05T22:21:33.356Z,33.17
2017-12-05T22:24:01.197Z,36.43
2017-12-05T22:26:29.096Z,31.73
2017-12-05T22:28:57.000Z,32.23
2017-12-05T22:31:24.840Z,41.97
2017-12-05T22:33:52.690Z,38.00
2017-12-05T22:36:20.568Z,36.87
2017-12-05T22:38:55.164Z,36.67
2017-12-05T22:41:23.349Z,30.17
2017-12-05T22:43:51.439Z,35.07
2017-12-05T22:46:19.527Z,45.60
2017-12-05T22:48:52.348Z,41.50
2017-12-05T22:51:20.229Z,37.77
2017-12-05T22:53:48.877Z,38.83
2017-12-05T22:56:16.769Z,41.43
2017-12-05T22:58:44.633Z,34.17
2017-12-05T23:01:12.504Z,46.27
2017-12-05T23:03:40.424Z,42.53
2017-12-05T23:06:08.279Z,58.60
2017-12-05T23:08:36.145Z,44.10
2017-12-05T23:11:04.016Z,65.23
2017-12-05T23:13:31.895Z,44.03
2017-12-05T23:15:59.747Z,59.30
2017-12-05T23:18:27.609Z,61.93
2017-12-05T23:20:55.453Z,43.30
2017-12-05T23:23:23.312Z,55.93
2017-12-05T23:25:51.184Z,68.03
2017-12-05T23:28:25.298Z,55.60
2017-12-05T23:30:53.124Z,50.27
2017-12-05T23:33:20.962Z,61.43
2017-12-05T23:35:48.820Z,61.80
2017-12-05T23:38:16.618Z,48.90
2017-12-05T23:40:44.469Z,56.43
2017-12-05T23:43:12.311Z,59.90
2017-12-05T23:45:40.150Z,66.37
2017-12-05T23:48:07.982Z,65.83
2017-12-05T23:50:35.828Z,63.17
2017-12-05T23:53:04.775Z,64.30
2017-12-05T23:55:32.643Z,71.07
2017-12-05T23:58:06.622Z,69.77
